Thunder radar more information blitzortung!


Radar de pluja more information rain snow radar


Visita la nostra xarxa de llocs de meteo:

Template documentation
and downloads

And another site



No particular awareness of the weather is required.    There are no Weather-warnings

Pagina Historial Weather Underground text

Diari Resum May 27, 2017 Unitats:  Tant    Imperial   Mètric
« Previous Dia
SegĂźent Dia »
Diari Setmana Mensual Anual Personalitzada
  Maxima: Minima: Media:
Temperatura: 80.4 °F /  26.9 °C 60.1 °F /  15.6 °C 71.2 °F /  21.8 °C
Punt de rosada: 60.6 °F /  15.9 °C 50.5 °F /  10.3 °C 56.1 °F /  13.4 °C
Humitat: 82 % 38 % 61 %
Wind Speed: 12.7 mph /  20.4 km/h - 4.5 mph /  7.3 km/h
RĂ fegues de vent: 12.7 mph /  20.4 km/h - -
Vent:- - East
Pression baro: 30.1 in /  1019.9 hPa 30 in /  1014.8 hPa -
Precipitacions: 0 in /  0.0 mm    
Historical Graphs
 
 
Dades de taula per May 27, 2017
Temps Temperatura Punt de rosada Pression baro Vent Wind Speed RĂ fegues de vent Humitat Rainfall Rate (Hourly)
00:00 63.3 °F /  17.4 °C 57.4 °F /  14.1 °C 30 in /  1015.8 hPa ENE 3 mph /  4.8 km/h 5 mph /  8.0 km/h 81 % 0 in /  0.0 mm
00:02 63.7 °F /  17.6 °C 56.3 °F /  13.5 °C 30 in /  1014.8 hPa ENE 3.6 mph /  5.8 km/h 3.6 mph /  5.8 km/h 77 % 0 in /  0.0 mm
00:07 63.5 °F /  17.5 °C 56.5 °F /  13.6 °C 30 in /  1014.8 hPa NNE 4.9 mph /  7.9 km/h 4.9 mph /  7.9 km/h 78 % 0 in /  0.0 mm
00:10 63.3 °F /  17.4 °C 57.4 °F /  14.1 °C 30 in /  1015.8 hPa NE 3 mph /  4.8 km/h 6 mph /  9.7 km/h 81 % 0 in /  0.0 mm
00:20 63.3 °F /  17.4 °C 57.4 °F /  14.1 °C 30 in /  1015.8 hPa NE 2 mph /  3.2 km/h 6 mph /  9.7 km/h 81 % 0 in /  0.0 mm
00:30 63.3 °F /  17.4 °C 57.4 °F /  14.1 °C 30 in /  1015.8 hPa ENE 6 mph /  9.7 km/h 6 mph /  9.7 km/h 81 % 0 in /  0.0 mm
00:40 63 °F /  17.2 °C 57 °F /  13.9 °C 30 in /  1016.8 hPa ENE 6 mph /  9.7 km/h 8 mph /  12.9 km/h 81 % 0 in /  0.0 mm
00:50 62.8 °F /  17.1 °C 57.2 °F /  14.0 °C 30 in /  1016.8 hPa NE 5 mph /  8.0 km/h 6 mph /  9.7 km/h 82 % 0 in /  0.0 mm
01:00 62.8 °F /  17.1 °C 57.2 °F /  14.0 °C 30 in /  1015.8 hPa NE 5 mph /  8.0 km/h 6 mph /  9.7 km/h 82 % 0 in /  0.0 mm
01:10 63 °F /  17.2 °C 57.4 °F /  14.1 °C 30 in /  1015.8 hPa NE 3 mph /  4.8 km/h 6 mph /  9.7 km/h 82 % 0 in /  0.0 mm
01:20 63 °F /  17.2 °C 57.4 °F /  14.1 °C 30 in /  1015.8 hPa NE 3 mph /  4.8 km/h 6 mph /  9.7 km/h 82 % 0 in /  0.0 mm
01:30 63 °F /  17.2 °C 57.4 °F /  14.1 °C 30 in /  1016.8 hPa NE 5 mph /  8.0 km/h 6 mph /  9.7 km/h 82 % 0 in /  0.0 mm
01:40 62.8 °F /  17.1 °C 57.2 °F /  14.0 °C 30.1 in /  1017.8 hPa ENE 5 mph /  8.0 km/h 6 mph /  9.7 km/h 82 % 0 in /  0.0 mm
01:50 62.8 °F /  17.1 °C 57.2 °F /  14.0 °C 30.1 in /  1017.8 hPa NE 3 mph /  4.8 km/h 6 mph /  9.7 km/h 82 % 0 in /  0.0 mm
02:00 62.8 °F /  17.1 °C 56.8 °F /  13.8 °C 30.1 in /  1017.8 hPa NE 6 mph /  9.7 km/h 6 mph /  9.7 km/h 81 % 0 in /  0.0 mm
02:10 63 °F /  17.2 °C 57 °F /  13.9 °C 30.1 in /  1017.8 hPa Calm   5 mph /  8.0 km/h 81 % 0 in /  0.0 mm
02:20 63.1 °F /  17.3 °C 56.8 °F /  13.8 °C 30.1 in /  1017.8 hPa NE 3 mph /  4.8 km/h 4 mph /  6.4 km/h 80 % 0 in /  0.0 mm
02:30 63.5 °F /  17.5 °C 57.2 °F /  14.0 °C 30.1 in /  1017.8 hPa Calm   2 mph /  3.2 km/h 80 % 0 in /  0.0 mm
02:40 63.7 °F /  17.6 °C 57.4 °F /  14.1 °C 30.1 in /  1017.8 hPa NE 3 mph /  4.8 km/h 4 mph /  6.4 km/h 80 % 0 in /  0.0 mm
03:00 64 °F /  17.8 °C 57.4 °F /  14.1 °C 30.1 in /  1017.8 hPa NE 3 mph /  4.8 km/h 5 mph /  8.0 km/h 79 % 0 in /  0.0 mm
03:10 64.4 °F /  18.0 °C 57.4 °F /  14.1 °C 30.1 in /  1017.8 hPa NE 2 mph /  3.2 km/h 4 mph /  6.4 km/h 78 % 0 in /  0.0 mm
03:20 64.8 °F /  18.2 °C 57.7 °F /  14.3 °C 30.1 in /  1017.8 hPa NE 2 mph /  3.2 km/h 3 mph /  4.8 km/h 78 % 0 in /  0.0 mm
03:30 64.8 °F /  18.2 °C 57.7 °F /  14.3 °C 30.1 in /  1017.8 hPa ENE 2 mph /  3.2 km/h 3 mph /  4.8 km/h 78 % 0 in /  0.0 mm
03:40 64.9 °F /  18.3 °C 57.9 °F /  14.4 °C 30.1 in /  1017.8 hPa ENE 3 mph /  4.8 km/h 4 mph /  6.4 km/h 78 % 0 in /  0.0 mm
03:50 64.9 °F /  18.3 °C 57.9 °F /  14.4 °C 30.1 in /  1017.8 hPa NE 2 mph /  3.2 km/h 4 mph /  6.4 km/h 78 % 0 in /  0.0 mm
04:00 65.3 °F /  18.5 °C 58.3 °F /  14.6 °C 30.1 in /  1017.8 hPa Calm   3 mph /  4.8 km/h 78 % 0 in /  0.0 mm
04:10 65.8 °F /  18.8 °C 58.5 °F /  14.7 °C 30.1 in /  1017.8 hPa Calm   2 mph /  3.2 km/h 77 % 0 in /  0.0 mm
04:20 66.4 °F /  19.1 °C 58.6 °F /  14.8 °C 30.1 in /  1017.8 hPa ESE 1 mph /  1.6 km/h 2 mph /  3.2 km/h 76 % 0 in /  0.0 mm
04:30 66.7 °F /  19.3 °C 58.6 °F /  14.8 °C 30.1 in /  1017.8 hPa ESE 2 mph /  3.2 km/h 2 mph /  3.2 km/h 75 % 0 in /  0.0 mm
04:40 67.5 °F /  19.7 °C 59.4 °F /  15.2 °C 30.1 in /  1017.8 hPa ESE 1 mph /  1.6 km/h 2 mph /  3.2 km/h 75 % 0 in /  0.0 mm
04:50 68.4 °F /  20.2 °C 59.7 °F /  15.4 °C 30.1 in /  1017.8 hPa ESE 1 mph /  1.6 km/h 5 mph /  8.0 km/h 74 % 0 in /  0.0 mm
05:00 69.3 °F /  20.7 °C 59.7 °F /  15.4 °C 30.1 in /  1017.8 hPa South 2 mph /  3.2 km/h 4 mph /  6.4 km/h 72 % 0 in /  0.0 mm
05:10 70.2 °F /  21.2 °C 60.3 °F /  15.7 °C 30.1 in /  1017.8 hPa SSW 1 mph /  1.6 km/h 3 mph /  4.8 km/h 71 % 0 in /  0.0 mm
05:20 70.7 °F /  21.5 °C 60.4 °F /  15.8 °C 30.1 in /  1017.8 hPa ENE 2 mph /  3.2 km/h 5 mph /  8.0 km/h 70 % 0 in /  0.0 mm
05:30 70.9 °F /  21.6 °C 60.3 °F /  15.7 °C 30.1 in /  1017.8 hPa East 2 mph /  3.2 km/h 5 mph /  8.0 km/h 69 % 0 in /  0.0 mm
05:40 71.4 °F /  21.9 °C 60.3 °F /  15.7 °C 30.1 in /  1017.8 hPa East 3 mph /  4.8 km/h 4 mph /  6.4 km/h 68 % 0 in /  0.0 mm
05:50 71.6 °F /  22.0 °C 60.1 °F /  15.6 °C 30.1 in /  1017.8 hPa ENE 3 mph /  4.8 km/h 4 mph /  6.4 km/h 67 % 0 in /  0.0 mm
06:00 72 °F /  22.2 °C 59.5 °F /  15.3 °C 30.1 in /  1018.8 hPa East 5 mph /  8.0 km/h 6 mph /  9.7 km/h 65 % 0 in /  0.0 mm
06:10 72.1 °F /  22.3 °C 59.7 °F /  15.4 °C 30.1 in /  1018.8 hPa East 3 mph /  4.8 km/h 8 mph /  12.9 km/h 65 % 0 in /  0.0 mm
06:20 73.2 °F /  22.9 °C 59.9 °F /  15.5 °C 30.1 in /  1018.8 hPa East 2 mph /  3.2 km/h 8 mph /  12.9 km/h 63 % 0 in /  0.0 mm
06:30 74.5 °F /  23.6 °C 60.6 °F /  15.9 °C 30.1 in /  1018.8 hPa East 2 mph /  3.2 km/h 4 mph /  6.4 km/h 62 % 0 in /  0.0 mm
06:40 73.9 °F /  23.3 °C 60.1 °F /  15.6 °C 30.1 in /  1018.8 hPa East 3 mph /  4.8 km/h 9 mph /  14.5 km/h 62 % 0 in /  0.0 mm
06:50 74.3 °F /  23.5 °C 59.5 °F /  15.3 °C 30.1 in /  1018.8 hPa ESE 3 mph /  4.8 km/h 8 mph /  12.9 km/h 60 % 0 in /  0.0 mm
07:00 74.3 °F /  23.5 °C 60.1 °F /  15.6 °C 30.1 in /  1018.8 hPa ESE 3 mph /  4.8 km/h 5 mph /  8.0 km/h 61 % 0 in /  0.0 mm
07:10 74.8 °F /  23.8 °C 60.1 °F /  15.6 °C 30.1 in /  1018.8 hPa East 5 mph /  8.0 km/h 6 mph /  9.7 km/h 60 % 0 in /  0.0 mm
07:20 76.1 °F /  24.5 °C 60.3 °F /  15.7 °C 30.1 in /  1018.8 hPa ESE 3 mph /  4.8 km/h 5 mph /  8.0 km/h 58 % 0 in /  0.0 mm
07:30 75.2 °F /  24.0 °C 59.4 °F /  15.2 °C 30.1 in /  1018.8 hPa East 2 mph /  3.2 km/h 7 mph /  11.3 km/h 58 % 0 in /  0.0 mm
07:40 75.7 °F /  24.3 °C 59.9 °F /  15.5 °C 30.1 in /  1018.8 hPa East 5 mph /  8.0 km/h 9 mph /  14.5 km/h 58 % 0 in /  0.0 mm
07:50 75.9 °F /  24.4 °C 60.1 °F /  15.6 °C 30.1 in /  1018.8 hPa East 3 mph /  4.8 km/h 8 mph /  12.9 km/h 58 % 0 in /  0.0 mm
08:00 77.2 °F /  25.1 °C 60.3 °F /  15.7 °C 30.1 in /  1018.8 hPa ESE 3 mph /  4.8 km/h 4 mph /  6.4 km/h 56 % 0 in /  0.0 mm
08:10 76.8 °F /  24.9 °C 59.4 °F /  15.2 °C 30.1 in /  1019.9 hPa East 5 mph /  8.0 km/h 8 mph /  12.9 km/h 55 % 0 in /  0.0 mm
08:20 76.5 °F /  24.7 °C 59.2 °F /  15.1 °C 30.1 in /  1019.9 hPa East 6 mph /  9.7 km/h 8 mph /  12.9 km/h 55 % 0 in /  0.0 mm
08:30 77.5 °F /  25.3 °C 59.2 °F /  15.1 °C 30.1 in /  1018.8 hPa East 5 mph /  8.0 km/h 7 mph /  11.3 km/h 53 % 0 in /  0.0 mm
13:37 77.9 °F /  25.5 °C 59.4 °F /  15.2 °C 30.1 in /  1018.8 hPa ESE 8.1 mph /  13.0 km/h 8.1 mph /  13.0 km/h 53 % 0 in /  0.0 mm
13:42 78.8 °F /  26.0 °C 59.7 °F /  15.4 °C 30.1 in /  1018.8 hPa East 6.9 mph /  11.1 km/h 6.9 mph /  11.1 km/h 52 % 0 in /  0.0 mm
13:47 78.3 °F /  25.7 °C 59.2 °F /  15.1 °C 30.1 in /  1018.8 hPa East 5.8 mph /  9.3 km/h 5.8 mph /  9.3 km/h 52 % 0 in /  0.0 mm
13:52 77.9 °F /  25.5 °C 58.8 °F /  14.9 °C 30.1 in /  1019.9 hPa East 5.8 mph /  9.3 km/h 5.8 mph /  9.3 km/h 52 % 0 in /  0.0 mm
13:57 78.3 °F /  25.7 °C 58.6 °F /  14.8 °C 30.1 in /  1019.9 hPa SSE 9.8 mph /  15.8 km/h 9.8 mph /  15.8 km/h 51 % 0 in /  0.0 mm
14:02 78.3 °F /  25.7 °C 58.6 °F /  14.8 °C 30.1 in /  1019.9 hPa ESE 5.9 mph /  9.5 km/h 5.9 mph /  9.5 km/h 51 % 0 in /  0.0 mm
14:07 78.1 °F /  25.6 °C 57.9 °F /  14.4 °C 30.1 in /  1018.8 hPa SSE 6.2 mph /  10.0 km/h 6.2 mph /  10.0 km/h 50 % 0 in /  0.0 mm
14:12 78.8 °F /  26.0 °C 58.6 °F /  14.8 °C 30.1 in /  1018.8 hPa ESE 6.9 mph /  11.1 km/h 6.9 mph /  11.1 km/h 50 % 0 in /  0.0 mm
14:17 78.4 °F /  25.8 °C 57.7 °F /  14.3 °C 30.1 in /  1018.8 hPa East 5.8 mph /  9.3 km/h 5.9 mph /  9.5 km/h 49 % 0 in /  0.0 mm
14:20 78.1 °F /  25.6 °C 57.4 °F /  14.1 °C 30.1 in /  1018.8 hPa SSE 9.2 mph /  14.8 km/h 9.2 mph /  14.8 km/h 49 % 0 in /  0.0 mm
14:25 78.8 °F /  26.0 °C 57.9 °F /  14.4 °C 30.1 in /  1018.8 hPa East 8.1 mph /  13.0 km/h 8.1 mph /  13.0 km/h 49 % 0 in /  0.0 mm
14:30 78.6 °F /  25.9 °C 57.4 °F /  14.1 °C 30.1 in /  1018.8 hPa SE 6.9 mph /  11.1 km/h 6.9 mph /  11.1 km/h 48 % 0 in /  0.0 mm
14:35 77.9 °F /  25.5 °C 56.7 °F /  13.7 °C 30.1 in /  1018.8 hPa ESE 6.9 mph /  11.1 km/h 6.9 mph /  11.1 km/h 48 % 0 in /  0.0 mm
14:40 78.4 °F /  25.8 °C 57 °F /  13.9 °C 30.1 in /  1018.8 hPa ENE 6.9 mph /  11.1 km/h 6.9 mph /  11.1 km/h 48 % 0 in /  0.0 mm
14:45 78.1 °F /  25.6 °C 56.1 °F /  13.4 °C 30.1 in /  1018.8 hPa East 10.4 mph /  16.7 km/h 10.4 mph /  16.7 km/h 47 % 0 in /  0.0 mm
14:50 78.3 °F /  25.7 °C 56.5 °F /  13.6 °C 30.1 in /  1017.8 hPa SE 9.2 mph /  14.8 km/h 9.2 mph /  14.8 km/h 47 % 0 in /  0.0 mm
14:55 79.3 °F /  26.3 °C 56.8 °F /  13.8 °C 30.1 in /  1017.8 hPa ESE 8.1 mph /  13.0 km/h 8.1 mph /  13.0 km/h 46 % 0 in /  0.0 mm
15:00 78.8 °F /  26.0 °C 55.8 °F /  13.2 °C 30.1 in /  1017.8 hPa ESE 9.7 mph /  15.6 km/h 9.7 mph /  15.6 km/h 45 % 0 in /  0.0 mm
15:05 78.3 °F /  25.7 °C 55.2 °F /  12.9 °C 30.1 in /  1017.8 hPa East 8.1 mph /  13.0 km/h 8.1 mph /  13.0 km/h 45 % 0 in /  0.0 mm
15:10 78.6 °F /  25.9 °C 54.9 °F /  12.7 °C 30.1 in /  1017.8 hPa NNE 11.5 mph /  18.5 km/h 11.5 mph /  18.5 km/h 44 % 0 in /  0.0 mm
15:15 78.3 °F /  25.7 °C 54 °F /  12.2 °C 30.1 in /  1017.8 hPa ESE 11.5 mph /  18.5 km/h 11.5 mph /  18.5 km/h 43 % 0 in /  0.0 mm
15:20 78.4 °F /  25.8 °C 54.1 °F /  12.3 °C 30.1 in /  1017.8 hPa East 6.9 mph /  11.1 km/h 6.9 mph /  11.1 km/h 43 % 0 in /  0.0 mm
15:25 78.6 °F /  25.9 °C 54.1 °F /  12.3 °C 30.1 in /  1017.8 hPa SW 8.1 mph /  13.0 km/h 8.1 mph /  13.0 km/h 43 % 0 in /  0.0 mm
15:30 79.3 °F /  26.3 °C 54.9 °F /  12.7 °C 30.1 in /  1017.8 hPa SSE 8.1 mph /  13.0 km/h 8.1 mph /  13.0 km/h 43 % 0 in /  0.0 mm
15:35 79.7 °F /  26.5 °C 55.9 °F /  13.3 °C 30.1 in /  1017.8 hPa ENE 5.9 mph /  9.5 km/h 5.9 mph /  9.5 km/h 44 % 0 in /  0.0 mm
15:40 79.2 °F /  26.2 °C 54.7 °F /  12.6 °C 30.1 in /  1017.8 hPa ESE 6 mph /  9.7 km/h 6 mph /  9.7 km/h 43 % 0 in /  0.0 mm
15:45 80.1 °F /  26.7 °C 54.9 °F /  12.7 °C 30.1 in /  1017.8 hPa SE 5.8 mph /  9.3 km/h 5.8 mph /  9.3 km/h 42 % 0 in /  0.0 mm
15:50 80.4 °F /  26.9 °C 55.2 °F /  12.9 °C 30.1 in /  1017.8 hPa SE 4.6 mph /  7.4 km/h 4.6 mph /  7.4 km/h 42 % 0 in /  0.0 mm
15:55 80.4 °F /  26.9 °C 54.7 °F /  12.6 °C 30.1 in /  1017.8 hPa SSE 5.8 mph /  9.3 km/h 5.8 mph /  9.3 km/h 41 % 0 in /  0.0 mm
16:00 79.7 °F /  26.5 °C 54 °F /  12.2 °C 30.1 in /  1017.8 hPa SE 10.4 mph /  16.7 km/h 10.4 mph /  16.7 km/h 41 % 0 in /  0.0 mm
16:05 80.4 °F /  26.9 °C 54 °F /  12.2 °C 30.1 in /  1017.8 hPa ESE 8.1 mph /  13.0 km/h 8.1 mph /  13.0 km/h 40 % 0 in /  0.0 mm
16:10 79.2 °F /  26.2 °C 51.4 °F /  10.8 °C 30.1 in /  1017.8 hPa SE 10.4 mph /  16.7 km/h 10.4 mph /  16.7 km/h 38 % 0 in /  0.0 mm
16:15 79.2 °F /  26.2 °C 52.9 °F /  11.6 °C 30.1 in /  1017.8 hPa SSE 6.9 mph /  11.1 km/h 6.9 mph /  11.1 km/h 40 % 0 in /  0.0 mm
16:20 79.3 °F /  26.3 °C 52.9 °F /  11.6 °C 30.1 in /  1017.8 hPa SE 8.1 mph /  13.0 km/h 8.1 mph /  13.0 km/h 40 % 0 in /  0.0 mm
16:25 79 °F /  26.1 °C 52 °F /  11.1 °C 30.1 in /  1017.8 hPa ENE 10.4 mph /  16.7 km/h 10.4 mph /  16.7 km/h 39 % 0 in /  0.0 mm
16:30 79 °F /  26.1 °C 52 °F /  11.1 °C 30.1 in /  1017.8 hPa SE 10.4 mph /  16.7 km/h 10.4 mph /  16.7 km/h 39 % 0 in /  0.0 mm
16:35 78.3 °F /  25.7 °C 50.5 °F /  10.3 °C 30.1 in /  1017.8 hPa ESE 8.7 mph /  14.0 km/h 8.7 mph /  14.0 km/h 38 % 0 in /  0.0 mm
16:40 78.6 °F /  25.9 °C 51.6 °F /  10.9 °C 30.1 in /  1017.8 hPa ESE 6.9 mph /  11.1 km/h 6.9 mph /  11.1 km/h 39 % 0 in /  0.0 mm
16:45 78.6 °F /  25.9 °C 50.9 °F /  10.5 °C 30.1 in /  1017.8 hPa ESE 10.5 mph /  16.9 km/h 10.5 mph /  16.9 km/h 38 % 0 in /  0.0 mm
16:55 78.8 °F /  26.0 °C 52.3 °F /  11.3 °C 30 in /  1016.8 hPa East 8.1 mph /  13.0 km/h 8.1 mph /  13.0 km/h 40 % 0 in /  0.0 mm
17:00 79 °F /  26.1 °C 53.2 °F /  11.8 °C 30 in /  1016.8 hPa SSE 9.2 mph /  14.8 km/h 9.2 mph /  14.8 km/h 41 % 0 in /  0.0 mm
17:05 79.2 °F /  26.2 °C 54.1 °F /  12.3 °C 30 in /  1016.8 hPa ESE 9.2 mph /  14.8 km/h 9.2 mph /  14.8 km/h 42 % 0 in /  0.0 mm
17:10 78.8 °F /  26.0 °C 53.1 °F /  11.7 °C 30 in /  1016.8 hPa ESE 7.6 mph /  12.2 km/h 7.6 mph /  12.2 km/h 41 % 0 in /  0.0 mm
17:15 78.8 °F /  26.0 °C 53.8 °F /  12.1 °C 30 in /  1016.8 hPa ENE 11.5 mph /  18.5 km/h 11.5 mph /  18.5 km/h 42 % 0 in /  0.0 mm
17:20 78.8 °F /  26.0 °C 53.1 °F /  11.7 °C 30 in /  1016.8 hPa East 8.1 mph /  13.0 km/h 8.1 mph /  13.0 km/h 41 % 0 in /  0.0 mm
17:25 78.6 °F /  25.9 °C 53.6 °F /  12.0 °C 30 in /  1016.8 hPa East 9.2 mph /  14.8 km/h 9.2 mph /  14.8 km/h 42 % 0 in /  0.0 mm
17:26 78.8 °F /  26.0 °C 53.8 °F /  12.1 °C 30 in /  1016.8 hPa ESE 7.8 mph /  12.6 km/h 7.8 mph /  12.6 km/h 42 % 0 in /  0.0 mm
17:31 78.6 °F /  25.9 °C 53.6 °F /  12.0 °C 30 in /  1016.8 hPa East 8.1 mph /  13.0 km/h 8.1 mph /  13.0 km/h 42 % 0 in /  0.0 mm
17:36 78.6 °F /  25.9 °C 53.6 °F /  12.0 °C 30 in /  1016.8 hPa ESE 12.7 mph /  20.4 km/h 12.7 mph /  20.4 km/h 42 % 0 in /  0.0 mm
17:41 78.6 °F /  25.9 °C 53.6 °F /  12.0 °C 30 in /  1016.8 hPa ESE 6.9 mph /  11.1 km/h 6.9 mph /  11.1 km/h 42 % 0 in /  0.0 mm
17:46 78.4 °F /  25.8 °C 52.9 °F /  11.6 °C 30 in /  1016.8 hPa ESE 9.2 mph /  14.8 km/h 9.2 mph /  14.8 km/h 41 % 0 in /  0.0 mm
17:51 78.4 °F /  25.8 °C 53.4 °F /  11.9 °C 30 in /  1016.8 hPa SE 9.2 mph /  14.8 km/h 9.2 mph /  14.8 km/h 42 % 0 in /  0.0 mm
17:56 78.1 °F /  25.6 °C 52.5 °F /  11.4 °C 30 in /  1016.8 hPa ESE 8.1 mph /  13.0 km/h 8.1 mph /  13.0 km/h 41 % 0 in /  0.0 mm
18:01 78.1 °F /  25.6 °C 52.5 °F /  11.4 °C 30 in /  1016.8 hPa ESE 6.2 mph /  10.0 km/h 6.2 mph /  10.0 km/h 41 % 0 in /  0.0 mm
18:06 78.1 °F /  25.6 °C 51.8 °F /  11.0 °C 30 in /  1016.8 hPa East 6.9 mph /  11.1 km/h 6.9 mph /  11.1 km/h 40 % 0 in /  0.0 mm
18:11 77.5 °F /  25.3 °C 52 °F /  11.1 °C 30 in /  1016.8 hPa ENE 12.7 mph /  20.4 km/h 12.7 mph /  20.4 km/h 41 % 0 in /  0.0 mm
18:16 77.5 °F /  25.3 °C 52 °F /  11.1 °C 30 in /  1016.8 hPa ESE 8.1 mph /  13.0 km/h 8.1 mph /  13.0 km/h 41 % 0 in /  0.0 mm
18:21 77.4 °F /  25.2 °C 52.5 °F /  11.4 °C 30 in /  1016.8 hPa ENE 9.2 mph /  14.8 km/h 9.2 mph /  14.8 km/h 42 % 0 in /  0.0 mm
18:26 76.8 °F /  24.9 °C 53.2 °F /  11.8 °C 30 in /  1016.8 hPa ENE 9.2 mph /  14.8 km/h 9.2 mph /  14.8 km/h 44 % 0 in /  0.0 mm
18:31 76.6 °F /  24.8 °C 53.8 °F /  12.1 °C 30 in /  1016.8 hPa SSE 11.5 mph /  18.5 km/h 11.5 mph /  18.5 km/h 45 % 0 in /  0.0 mm
18:36 76.6 °F /  24.8 °C 54.3 °F /  12.4 °C 30 in /  1015.8 hPa ESE 6.2 mph /  10.0 km/h 6.2 mph /  10.0 km/h 46 % 0 in /  0.0 mm
18:41 76.5 °F /  24.7 °C 54.7 °F /  12.6 °C 30 in /  1015.8 hPa SE 6 mph /  9.7 km/h 6 mph /  9.7 km/h 47 % 0 in /  0.0 mm
18:46 76.1 °F /  24.5 °C 54.3 °F /  12.4 °C 30 in /  1015.8 hPa ESE 6.2 mph /  10.0 km/h 6.2 mph /  10.0 km/h 47 % 0 in /  0.0 mm
18:51 75.7 °F /  24.3 °C 54.1 °F /  12.3 °C 30 in /  1015.8 hPa East 8.5 mph /  13.7 km/h 8.5 mph /  13.7 km/h 47 % 0 in /  0.0 mm
18:56 75.7 °F /  24.3 °C 54.7 °F /  12.6 °C 30 in /  1015.8 hPa ESE 8.1 mph /  13.0 km/h 8.1 mph /  13.0 km/h 48 % 0 in /  0.0 mm
19:01 75.4 °F /  24.1 °C 54.3 °F /  12.4 °C 30 in /  1015.8 hPa ESE 8.1 mph /  13.0 km/h 8.1 mph /  13.0 km/h 48 % 0 in /  0.0 mm
19:06 75.4 °F /  24.1 °C 54.9 °F /  12.7 °C 30 in /  1015.8 hPa ESE 4.6 mph /  7.4 km/h 4.9 mph /  7.9 km/h 49 % 0 in /  0.0 mm
19:11 75.2 °F /  24.0 °C 54.7 °F /  12.6 °C 30 in /  1015.8 hPa ESE 8.1 mph /  13.0 km/h 8.1 mph /  13.0 km/h 49 % 0 in /  0.0 mm
19:16 74.8 °F /  23.8 °C 54.3 °F /  12.4 °C 30 in /  1015.8 hPa East 8.1 mph /  13.0 km/h 8.1 mph /  13.0 km/h 49 % 0 in /  0.0 mm
19:21 74.7 °F /  23.7 °C 54.9 °F /  12.7 °C 30 in /  1016.8 hPa East 8.1 mph /  13.0 km/h 8.1 mph /  13.0 km/h 50 % 0 in /  0.0 mm
19:26 74.5 °F /  23.6 °C 54.7 °F /  12.6 °C 30 in /  1016.8 hPa SE 8.1 mph /  13.0 km/h 8.1 mph /  13.0 km/h 50 % 0 in /  0.0 mm
19:30 65.5 °F /  18.6 °C 56.7 °F /  13.7 °C 30.1 in /  1018.8 hPa Calm     73 % 0 in /  0.0 mm
19:31 74.5 °F /  23.6 °C 54.7 °F /  12.6 °C 30 in /  1016.8 hPa SE 5.8 mph /  9.3 km/h 5.8 mph /  9.3 km/h 50 % 0 in /  0.0 mm
19:36 74.3 °F /  23.5 °C 55 °F /  12.8 °C 30 in /  1016.8 hPa ESE 9.8 mph /  15.8 km/h 9.8 mph /  15.8 km/h 51 % 0 in /  0.0 mm
19:40 65.3 °F /  18.5 °C 56.8 °F /  13.8 °C 30.1 in /  1018.8 hPa NNE 1 mph /  1.6 km/h   74 % 0 in /  0.0 mm
19:41 74.1 °F /  23.4 °C 54.9 °F /  12.7 °C 30 in /  1016.8 hPa NNE 5.8 mph /  9.3 km/h 5.8 mph /  9.3 km/h 51 % 0 in /  0.0 mm
19:46 73.8 °F /  23.2 °C 55 °F /  12.8 °C 30 in /  1016.8 hPa ENE 7.4 mph /  11.9 km/h 7.4 mph /  11.9 km/h 52 % 0 in /  0.0 mm
19:50 65.3 °F /  18.5 °C 56.8 °F /  13.8 °C 30.1 in /  1018.8 hPa Calm   2 mph /  3.2 km/h 74 % 0 in /  0.0 mm
19:51 73.2 °F /  22.9 °C 55.6 °F /  13.1 °C 30 in /  1016.8 hPa East 9.2 mph /  14.8 km/h 9.2 mph /  14.8 km/h 54 % 0 in /  0.0 mm
19:56 73.2 °F /  22.9 °C 55.6 °F /  13.1 °C 30 in /  1016.8 hPa ENE 6.4 mph /  10.3 km/h 6.4 mph /  10.3 km/h 54 % 0 in /  0.0 mm
20:00 65.1 °F /  18.4 °C 56.7 °F /  13.7 °C 30.1 in /  1018.8 hPa NNE 1 mph /  1.6 km/h 2 mph /  3.2 km/h 74 % 0 in /  0.0 mm
20:01 72.9 °F /  22.7 °C 55.8 °F /  13.2 °C 30 in /  1016.8 hPa ENE 5.8 mph /  9.3 km/h 5.8 mph /  9.3 km/h 55 % 0 in /  0.0 mm
20:06 72.9 °F /  22.7 °C 55.8 °F /  13.2 °C 30.1 in /  1017.8 hPa East 3.6 mph /  5.8 km/h 3.6 mph /  5.8 km/h 55 % 0 in /  0.0 mm
20:10 64.9 °F /  18.3 °C 56.8 °F /  13.8 °C 30.1 in /  1018.8 hPa Calm   2 mph /  3.2 km/h 75 % 0 in /  0.0 mm
20:11 72.5 °F /  22.5 °C 55.9 °F /  13.3 °C 30.1 in /  1017.8 hPa ENE 5.8 mph /  9.3 km/h 5.8 mph /  9.3 km/h 56 % 0 in /  0.0 mm
20:16 72.3 °F /  22.4 °C 55.8 °F /  13.2 °C 30.1 in /  1017.8 hPa ENE 6.9 mph /  11.1 km/h 6.9 mph /  11.1 km/h 56 % 0 in /  0.0 mm
20:20 64.8 °F /  18.2 °C 56.7 °F /  13.7 °C 30.1 in /  1018.8 hPa Calm   1 mph /  1.6 km/h 75 % 0 in /  0.0 mm
20:21 72.1 °F /  22.3 °C 56.5 °F /  13.6 °C 30.1 in /  1017.8 hPa ESE 4.6 mph /  7.4 km/h 4.6 mph /  7.4 km/h 58 % 0 in /  0.0 mm
20:23 72 °F /  22.2 °C 55.9 °F /  13.3 °C 30.1 in /  1017.8 hPa NNE 4.6 mph /  7.4 km/h 4.6 mph /  7.4 km/h 57 % 0 in /  0.0 mm
20:28 71.8 °F /  22.1 °C 55.8 °F /  13.2 °C 30.1 in /  1017.8 hPa ESE 6.9 mph /  11.1 km/h 6.9 mph /  11.1 km/h 57 % 0 in /  0.0 mm
20:30 64.4 °F /  18.0 °C 56.3 °F /  13.5 °C 30.1 in /  1018.8 hPa NE 1 mph /  1.6 km/h 1 mph /  1.6 km/h 75 % 0 in /  0.0 mm
20:33 71.6 °F /  22.0 °C 55.6 °F /  13.1 °C 30.1 in /  1017.8 hPa ESE 4.6 mph /  7.4 km/h 4.6 mph /  7.4 km/h 57 % 0 in /  0.0 mm
20:38 71.4 °F /  21.9 °C 55.9 °F /  13.3 °C 30.1 in /  1017.8 hPa ESE 4.6 mph /  7.4 km/h 4.6 mph /  7.4 km/h 58 % 0 in /  0.0 mm
20:40 64.4 °F /  18.0 °C 56.7 °F /  13.7 °C 30.1 in /  1018.8 hPa Calm   1 mph /  1.6 km/h 76 % 0 in /  0.0 mm
20:43 71.2 °F /  21.8 °C 55.8 °F /  13.2 °C 30.1 in /  1017.8 hPa ENE 4.6 mph /  7.4 km/h 4.6 mph /  7.4 km/h 58 % 0 in /  0.0 mm
20:48 71.1 °F /  21.7 °C 55.6 °F /  13.1 °C 30.1 in /  1017.8 hPa East 4.6 mph /  7.4 km/h 4.6 mph /  7.4 km/h 58 % 0 in /  0.0 mm
20:50 64 °F /  17.8 °C 56.3 °F /  13.5 °C 30.1 in /  1018.8 hPa Calm     76 % 0 in /  0.0 mm
20:53 70.9 °F /  21.6 °C 55.8 °F /  13.2 °C 30.1 in /  1017.8 hPa ESE 3.5 mph /  5.6 km/h 3.5 mph /  5.6 km/h 59 % 0 in /  0.0 mm
20:58 70.7 °F /  21.5 °C 55.8 °F /  13.2 °C 30.1 in /  1017.8 hPa ESE 4.9 mph /  7.9 km/h 4.9 mph /  7.9 km/h 59 % 0 in /  0.0 mm
21:00 63.9 °F /  17.7 °C 56.1 °F /  13.4 °C 30.1 in /  1018.8 hPa Calm     76 % 0 in /  0.0 mm
21:03 70.5 °F /  21.4 °C 55.9 °F /  13.3 °C 30.1 in /  1017.8 hPa ENE 3.5 mph /  5.6 km/h 3.5 mph /  5.6 km/h 60 % 0 in /  0.0 mm
21:08 70.3 °F /  21.3 °C 55.8 °F /  13.2 °C 30.1 in /  1017.8 hPa East 2.9 mph /  4.7 km/h 2.9 mph /  4.7 km/h 60 % 0 in /  0.0 mm
21:10 63.5 °F /  17.5 °C 55.8 °F /  13.2 °C 30.1 in /  1018.8 hPa Calm   1 mph /  1.6 km/h 76 % 0 in /  0.0 mm
21:13 70 °F /  21.1 °C 55.9 °F /  13.3 °C 30.1 in /  1017.8 hPa ESE 4.6 mph /  7.4 km/h 4.6 mph /  7.4 km/h 61 % 0 in /  0.0 mm
21:18 70 °F /  21.1 °C 56.5 °F /  13.6 °C 30.1 in /  1017.8 hPa ESE 4.6 mph /  7.4 km/h 4.6 mph /  7.4 km/h 62 % 0 in /  0.0 mm
21:20 63 °F /  17.2 °C 55.6 °F /  13.1 °C 30.1 in /  1018.8 hPa Calm     77 % 0 in /  0.0 mm
21:23 69.6 °F /  20.9 °C 55.9 °F /  13.3 °C 30.1 in /  1017.8 hPa East 2.4 mph /  3.9 km/h 2.4 mph /  3.9 km/h 62 % 0 in /  0.0 mm
21:28 69.4 °F /  20.8 °C 55.9 °F /  13.3 °C 30.1 in /  1017.8 hPa East 3.5 mph /  5.6 km/h 3.5 mph /  5.6 km/h 62 % 0 in /  0.0 mm
21:30 62.6 °F /  17.0 °C 55.2 °F /  12.9 °C 30.1 in /  1018.8 hPa Calm     77 % 0 in /  0.0 mm
21:33 69.3 °F /  20.7 °C 56.1 °F /  13.4 °C 30.1 in /  1017.8 hPa East 3.1 mph /  5.0 km/h 3.1 mph /  5.0 km/h 63 % 0 in /  0.0 mm
21:38 69.3 °F /  20.7 °C 56.1 °F /  13.4 °C 30.1 in /  1018.8 hPa ENE 2.3 mph /  3.7 km/h 2.3 mph /  3.7 km/h 63 % 0 in /  0.0 mm
21:40 62.4 °F /  16.9 °C 55.8 °F /  13.2 °C 30.1 in /  1018.8 hPa Calm     79 % 0 in /  0.0 mm
21:43 69.1 °F /  20.6 °C 55.9 °F /  13.3 °C 30.1 in /  1018.8 hPa East 2.3 mph /  3.7 km/h 2.3 mph /  3.7 km/h 63 % 0 in /  0.0 mm
21:48 68.9 °F /  20.5 °C 56.1 °F /  13.4 °C 30.1 in /  1018.8 hPa East 1.2 mph /  1.9 km/h 1.2 mph /  1.9 km/h 64 % 0 in /  0.0 mm
21:50 62.2 °F /  16.8 °C 55.6 °F /  13.1 °C 30.1 in /  1018.8 hPa SW 1 mph /  1.6 km/h 1 mph /  1.6 km/h 79 % 0 in /  0.0 mm
21:53 68.7 °F /  20.4 °C 55.9 °F /  13.3 °C 30 in /  1016.8 hPa NE 2.3 mph /  3.7 km/h 2.3 mph /  3.7 km/h 64 % 0 in /  0.0 mm
21:58 68.7 °F /  20.4 °C 55.9 °F /  13.3 °C 30 in /  1016.8 hPa ENE 2.3 mph /  3.7 km/h 2.3 mph /  3.7 km/h 64 % 0 in /  0.0 mm
22:00 62.2 °F /  16.8 °C 55.6 °F /  13.1 °C 30.1 in /  1018.8 hPa Calm   1 mph /  1.6 km/h 79 % 0 in /  0.0 mm
22:03 68.5 °F /  20.3 °C 56.3 °F /  13.5 °C 30 in /  1016.8 hPa NNE 2.3 mph /  3.7 km/h 2.3 mph /  3.7 km/h 65 % 0 in /  0.0 mm
22:08 68.4 °F /  20.2 °C 56.1 °F /  13.4 °C 30.1 in /  1017.8 hPa East 1.2 mph /  1.9 km/h 1.4 mph /  2.3 km/h 65 % 0 in /  0.0 mm
22:10 62.2 °F /  16.8 °C 55.6 °F /  13.1 °C 30.1 in /  1017.8 hPa ENE 1 mph /  1.6 km/h 1 mph /  1.6 km/h 79 % 0 in /  0.0 mm
22:13 68.4 °F /  20.2 °C 56.1 °F /  13.4 °C 30.1 in /  1017.8 hPa NE 2.3 mph /  3.7 km/h 2.3 mph /  3.7 km/h 65 % 0 in /  0.0 mm
22:18 68.2 °F /  20.1 °C 56.5 °F /  13.6 °C 30.1 in /  1017.8 hPa NE 1.6 mph /  2.6 km/h   66 % 0 in /  0.0 mm
22:20 62.2 °F /  16.8 °C 55.6 °F /  13.1 °C 30.1 in /  1017.8 hPa ENE 1 mph /  1.6 km/h 1 mph /  1.6 km/h 79 % 0 in /  0.0 mm
22:23 68 °F /  20.0 °C 56.1 °F /  13.4 °C 30.1 in /  1017.8 hPa NE 2.3 mph /  3.7 km/h 2.3 mph /  3.7 km/h 66 % 0 in /  0.0 mm
22:28 68 °F /  20.0 °C 56.1 °F /  13.4 °C 30.1 in /  1017.8 hPa NE 2.3 mph /  3.7 km/h 2.3 mph /  3.7 km/h 66 % 0 in /  0.0 mm
22:30 61.9 °F /  16.6 °C 55.2 °F /  12.9 °C 30.1 in /  1018.8 hPa ESE 1 mph /  1.6 km/h 2 mph /  3.2 km/h 79 % 0 in /  0.0 mm
22:33 68 °F /  20.0 °C 56.1 °F /  13.4 °C 30.1 in /  1017.8 hPa ENE 2.3 mph /  3.7 km/h 2.3 mph /  3.7 km/h 66 % 0 in /  0.0 mm
22:38 68 °F /  20.0 °C 56.1 °F /  13.4 °C 30.1 in /  1017.8 hPa NE 2.3 mph /  3.7 km/h 2.3 mph /  3.7 km/h 66 % 0 in /  0.0 mm
22:40 61.2 °F /  16.2 °C 54.7 °F /  12.6 °C 30.1 in /  1018.8 hPa Calm   2 mph /  3.2 km/h 79 % 0 in /  0.0 mm
22:44 67.8 °F /  19.9 °C 56.5 °F /  13.6 °C 30.1 in /  1017.8 hPa ENE 2.3 mph /  3.7 km/h 2.3 mph /  3.7 km/h 67 % 0 in /  0.0 mm
22:49 67.8 °F /  19.9 °C 56.5 °F /  13.6 °C 30.1 in /  1017.8 hPa ENE 1.4 mph /  2.3 km/h 1.4 mph /  2.3 km/h 67 % 0 in /  0.0 mm
22:50 60.8 °F /  16.0 °C 54.1 °F /  12.3 °C 30.1 in /  1018.8 hPa Calm   2 mph /  3.2 km/h 79 % 0 in /  0.0 mm
22:54 67.6 °F /  19.8 °C 56.3 °F /  13.5 °C 30.1 in /  1018.8 hPa NE 2.3 mph /  3.7 km/h   67 % 0 in /  0.0 mm
22:59 67.6 °F /  19.8 °C 56.3 °F /  13.5 °C 30.1 in /  1018.8 hPa ENE 2.3 mph /  3.7 km/h 2.3 mph /  3.7 km/h 67 % 0 in /  0.0 mm
23:00 60.4 °F /  15.8 °C 54 °F /  12.2 °C 30.1 in /  1018.8 hPa Calm     79 % 0 in /  0.0 mm
23:04 67.5 °F /  19.7 °C 56.1 °F /  13.4 °C 30.1 in /  1018.8 hPa NE 2.4 mph /  3.9 km/h 2.4 mph /  3.9 km/h 67 % 0 in /  0.0 mm
23:09 67.3 °F /  19.6 °C 56.5 °F /  13.6 °C 30.1 in /  1018.8 hPa NNE 2.4 mph /  3.9 km/h 2.4 mph /  3.9 km/h 68 % 0 in /  0.0 mm
23:10 60.4 °F /  15.8 °C 54.1 °F /  12.3 °C 30.1 in /  1017.8 hPa Calm     80 % 0 in /  0.0 mm
23:14 67.3 °F /  19.6 °C 56.5 °F /  13.6 °C 30.1 in /  1018.8 hPa NE 1.2 mph /  1.9 km/h   68 % 0 in /  0.0 mm
23:19 67.1 °F /  19.5 °C 56.1 °F /  13.4 °C 30.1 in /  1018.8 hPa ENE 1.4 mph /  2.3 km/h 1.4 mph /  2.3 km/h 68 % 0 in /  0.0 mm
23:20 60.4 °F /  15.8 °C 54.1 °F /  12.3 °C 30.1 in /  1017.8 hPa Calm     80 % 0 in /  0.0 mm
23:24 67.1 °F /  19.5 °C 56.1 °F /  13.4 °C 30.1 in /  1018.8 hPa NE 1.4 mph /  2.3 km/h 1.4 mph /  2.3 km/h 68 % 0 in /  0.0 mm
23:29 66.9 °F /  19.4 °C 55.9 °F /  13.3 °C 30.1 in /  1018.8 hPa NE 1.2 mph /  1.9 km/h   68 % 0 in /  0.0 mm
23:30 60.3 °F /  15.7 °C 54.1 °F /  12.3 °C 30.1 in /  1017.8 hPa Calm     80 % 0 in /  0.0 mm
23:34 66.9 °F /  19.4 °C 55.9 °F /  13.3 °C 30.1 in /  1018.8 hPa NNE 2.3 mph /  3.7 km/h 2.3 mph /  3.7 km/h 68 % 0 in /  0.0 mm
23:39 66.7 °F /  19.3 °C 56.1 °F /  13.4 °C 30.1 in /  1018.8 hPa NNE 2.3 mph /  3.7 km/h 2.3 mph /  3.7 km/h 69 % 0 in /  0.0 mm
23:40 60.1 °F /  15.6 °C 54 °F /  12.2 °C 30.1 in /  1017.8 hPa Calm     80 % 0 in /  0.0 mm
23:44 66.6 °F /  19.2 °C 56.1 °F /  13.4 °C 30.1 in /  1018.8 hPa NNE 1.4 mph /  2.3 km/h 1.4 mph /  2.3 km/h 69 % 0 in /  0.0 mm
23:49 66.4 °F /  19.1 °C 56.3 °F /  13.5 °C 30.1 in /  1018.8 hPa ENE 2.3 mph /  3.7 km/h 2.3 mph /  3.7 km/h 70 % 0 in /  0.0 mm
23:50 60.1 °F /  15.6 °C 54 °F /  12.2 °C 30.1 in /  1017.8 hPa SW 1 mph /  1.6 km/h 2 mph /  3.2 km/h 80 % 0 in /  0.0 mm
23:54 66.2 °F /  19.0 °C 56.1 °F /  13.4 °C 30.1 in /  1018.8 hPa NNW 1.2 mph /  1.9 km/h   70 % 0 in /  0.0 mm
23:59 66 °F /  18.9 °C 56.3 °F /  13.5 °C 30.1 in /  1018.8 hPa NNE 1.2 mph /  1.9 km/h   71 % 0 in /  0.0 mm
Meteo Sesrovires
Elogis d' Weather Underground - 3.5 mb

Guio original per  Jim McMurry - jmcmurry@mwt.net Adaptat per a la plantilla per  Wim van der Kuil - Leuven-Template.eu

Trobareu la nostra informacio del temps tambe a:

Weather Underground

AWEKAS